Time;durP1;ratioP1;P1;durP2;ratioP2;P2;SDS_P1;SDS_P2;PMS_P1;PMS_P2;Temp;Humidity;BMP_temperature;BMP_pressure;BME280_temperature;BME280_humidity;BME280_pressure;Samples;Min_cycle;Max_cycle;Signal;HPM_P1;HPM_P2
2022/12/04 00:03:00;;;;;;;28.10;11.45;;;6.10;96.80;;;;;;9682774;30;20378;-64
2022/12/04 00:08:02;;;;;;;27.95;10.80;;;6.10;96.80;;;;;;9682487;30;20052;-64
2022/12/04 00:13:03;;;;;;;27.02;11.57;;;6.10;96.80;;;;;;9682699;30;20184;-64
2022/12/04 00:18:04;;;;;;;29.52;11.10;;;6.80;96.90;;;;;;9682291;30;20042;-64
2022/12/04 00:23:05;;;;;;;27.52;11.82;;;6.10;96.70;;;;;;9682070;30;20105;-64
2022/12/04 00:28:06;;;;;;;26.55;10.90;;;6.20;96.70;;;;;;9682429;30;20068;-64
2022/12/04 00:33:06;;;;;;;31.52;11.95;;;6.10;96.70;;;;;;9679691;30;20056;-64
2022/12/04 00:38:07;;;;;;;31.25;12.27;;;6.10;96.70;;;;;;9681962;30;20038;-64
2022/12/04 00:43:08;;;;;;;30.35;11.85;;;6.10;96.70;;;;;;9681056;30;20104;-64
2022/12/04 00:48:09;;;;;;;28.73;11.15;;;6.10;96.70;;;;;;9682003;30;20049;-64
2022/12/04 00:53:10;;;;;;;28.95;11.55;;;6.40;96.70;;;;;;9680971;30;20133;-64
2022/12/04 00:58:11;;;;;;;27.42;11.70;;;6.10;96.60;;;;;;9681607;30;20103;-64
2022/12/04 01:03:12;;;;;;;25.35;10.75;;;6.10;96.60;;;;;;9678900;30;20536;-64
2022/12/04 01:08:12;;;;;;;30.58;12.50;;;6.10;96.60;;;;;;9678420;30;20116;-64
2022/12/04 01:13:13;;;;;;;30.75;11.88;;;6.10;96.60;;;;;;9677843;30;20060;-64
2022/12/04 01:18:15;;;;;;;29.05;11.32;;;6.10;96.60;;;;;;9677601;30;20510;-64
2022/12/04 01:23:16;;;;;;;28.88;11.30;;;6.10;96.60;;;;;;9679826;30;20030;-64
2022/12/04 01:28:17;;;;;;;31.65;11.70;;;6.10;96.60;;;;;;9679763;30;20515;-64
2022/12/04 01:33:18;;;;;;;29.98;11.52;;;6.10;96.60;;;;;;9677941;30;20120;-64
2022/12/04 01:38:19;;;;;;;31.17;12.48;;;6.10;96.60;;;;;;9680013;30;20038;-64
2022/12/04 01:43:20;;;;;;;27.42;12.00;;;6.00;96.50;;;;;;9677944;30;20141;-64
2022/12/04 01:48:38;;;;;;;28.73;11.80;;;6.30;96.60;;;;;;9677353;30;20101;-64
2022/12/04 01:53:42;;;;;;;36.40;13.83;;;6.00;96.40;;;;;;9678464;30;20101;-64
2022/12/04 01:58:49;;;;;;;31.58;12.75;;;6.20;96.60;;;;;;9678357;30;20043;-64
2022/12/04 02:03:50;;;;;;;31.77;13.02;;;6.40;96.60;;;;;;9678039;30;20041;-64
2022/12/04 02:08:51;;;;;;;29.65;11.57;;;6.30;96.60;;;;;;9676990;30;20029;-64
2022/12/04 02:14:06;;;;;;;31.33;11.25;;;6.00;96.50;;;;;;9662387;30;20121;-64
2022/12/04 02:19:32;;;;;;;29.65;12.52;;;6.70;96.70;;;;;;9677897;30;20034;-64
2022/12/04 02:24:51;;;;;;;28.98;11.98;;;6.00;96.40;;;;;;9670169;30;20041;-64
2022/12/04 02:30:03;;;;;;;32.90;13.32;;;6.00;96.40;;;;;;9675176;30;20101;-65
2022/12/04 02:35:08;;;;;;;31.33;12.85;;;6.00;96.40;;;;;;9674387;30;20100;-64
2022/12/04 02:40:28;;;;;;;28.65;11.32;;;6.30;96.50;;;;;;9675950;30;20484;-64
2022/12/04 02:45:38;;;;;;;31.80;12.75;;;6.00;96.40;;;;;;9677075;30;20116;-64
2022/12/04 02:50:40;;;;;;;30.73;12.43;;;6.00;96.40;;;;;;9675987;30;20084;-64
2022/12/04 02:55:50;;;;;;;27.15;11.98;;;6.00;96.50;;;;;;9686339;30;20038;-64
2022/12/04 03:00:53;;;;;;;31.95;13.80;;;6.00;96.40;;;;;;9689160;30;20285;-64
2022/12/04 03:06:07;;;;;;;28.58;12.23;;;6.30;96.50;;;;;;9689436;30;20488;-64
2022/12/04 03:11:08;;;;;;;28.02;11.82;;;6.00;96.40;;;;;;9684791;30;20049;-64
2022/12/04 03:16:10;;;;;;;34.80;13.18;;;6.00;96.40;;;;;;9687195;30;20089;-64
2022/12/04 03:21:19;;;;;;;35.63;13.57;;;6.00;96.40;;;;;;9687805;30;20049;-64
2022/12/04 03:26:29;;;;;;;35.77;13.70;;;6.00;96.40;;;;;;9688771;30;20058;-64
2022/12/04 03:31:46;;;;;;;33.63;13.60;;;6.00;96.40;;;;;;9685017;30;20058;-64
2022/12/04 03:37:02;;;;;;;34.05;14.57;;;6.00;96.40;;;;;;9687227;30;20038;-63
2022/12/04 03:42:25;;;;;;;35.08;13.88;;;5.90;96.30;;;;;;9686967;30;20054;-64
2022/12/04 03:47:45;;;;;;;33.95;13.00;;;6.30;96.40;;;;;;9688480;30;20026;-64
2022/12/04 03:52:49;;;;;;;37.80;13.95;;;5.90;96.30;;;;;;9687260;30;20504;-64
2022/12/04 03:57:55;;;;;;;39.13;13.95;;;5.90;96.40;;;;;;9685355;30;20497;-64
2022/12/04 04:03:19;;;;;;;38.67;14.48;;;6.00;96.40;;;;;;9687799;30;20528;-64
2022/12/04 04:08:26;;;;;;;37.05;13.75;;;5.90;96.30;;;;;;9681476;30;20100;-64
2022/12/04 04:24:34;;;;;;;37.55;13.60;;;5.90;96.40;;;;;;9681782;30;20048;-64
2022/12/04 04:29:36;;;;;;;35.38;13.77;;;5.90;96.30;;;;;;9680151;30;20054;-64
2022/12/04 04:34:58;;;;;;;38.47;14.63;;;5.90;96.40;;;;;;9678189;30;20030;-64
2022/12/04 04:40:07;;;;;;;34.60;14.43;;;5.90;96.30;;;;;;9681519;30;20076;-64
2022/12/04 04:45:11;;;;;;;32.97;12.95;;;5.90;96.30;;;;;;9680942;30;20590;-64
2022/12/04 04:50:15;;;;;;;34.60;13.52;;;5.90;96.30;;;;;;9679438;30;20077;-64
2022/12/04 04:55:18;;;;;;;33.80;14.00;;;6.10;96.40;;;;;;9680815;30;20553;-64
2022/12/04 05:00:21;;;;;;;34.25;13.73;;;5.90;96.30;;;;;;9681007;30;20409;-65
2022/12/04 05:05:22;;;;;;;34.78;12.98;;;5.90;96.30;;;;;;9680044;30;20040;-64
2022/12/04 05:10:23;;;;;;;36.30;13.52;;;5.90;96.30;;;;;;9678702;30;20064;-64
2022/12/04 05:15:24;;;;;;;36.97;14.68;;;6.90;96.60;;;;;;9680661;30;20215;-64
2022/12/04 05:20:24;;;;;;;36.25;13.52;;;5.90;96.30;;;;;;9679732;30;20045;-64
2022/12/04 05:25:25;;;;;;;35.47;14.63;;;6.20;96.40;;;;;;9680404;30;20023;-64
2022/12/04 05:30:26;;;;;;;35.60;15.05;;;5.90;96.30;;;;;;9675711;30;20046;-64
2022/12/04 05:35:26;;;;;;;36.90;13.80;;;5.90;96.30;;;;;;9676047;30;20129;-64
2022/12/04 05:40:27;;;;;;;35.60;13.82;;;5.90;96.30;;;;;;9679914;30;20033;-63
2022/12/04 05:45:28;;;;;;;39.40;14.73;;;5.90;96.30;;;;;;9677777;30;20129;-63
2022/12/04 05:50:28;;;;;;;35.67;14.32;;;7.00;96.60;;;;;;9679832;30;20085;-64
2022/12/04 05:55:29;;;;;;;36.17;13.90;;;5.90;96.30;;;;;;9679801;30;20498;-64
2022/12/04 06:00:30;;;;;;;34.45;13.63;;;5.90;96.30;;;;;;9679433;30;20062;-64
2022/12/04 06:05:31;;;;;;;35.75;14.32;;;5.90;96.30;;;;;;9679146;30;20052;-64
2022/12/04 06:10:32;;;;;;;37.83;13.88;;;5.90;96.30;;;;;;9678709;30;20523;-64
2022/12/04 06:15:39;;;;;;;34.50;14.48;;;5.80;96.30;;;;;;9677903;30;20040;-64
2022/12/04 06:20:40;;;;;;;34.30;14.40;;;5.80;96.20;;;;;;9677384;30;20069;-64
2022/12/04 06:25:41;;;;;;;33.38;14.23;;;5.90;96.30;;;;;;9676760;30;20084;-64
2022/12/04 06:30:41;;;;;;;36.72;14.52;;;6.30;96.40;;;;;;9673898;30;20069;-64
2022/12/04 06:35:42;;;;;;;34.03;13.52;;;6.50;96.40;;;;;;9676783;30;20045;-64
2022/12/04 06:40:43;;;;;;;36.50;14.10;;;6.30;96.40;;;;;;9676138;30;20467;-64
2022/12/04 06:45:43;;;;;;;38.67;14.68;;;6.50;96.40;;;;;;9676150;30;20060;-64
2022/12/04 06:50:44;;;;;;;38.00;14.07;;;5.80;96.20;;;;;;9674309;30;20046;-64
2022/12/04 06:55:48;;;;;;;35.00;14.45;;;5.80;96.20;;;;;;9673379;30;20405;-64
2022/12/04 07:00:48;;;;;;;30.77;13.95;;;5.90;96.20;;;;;;9675668;30;20136;-64
2022/12/04 07:05:49;;;;;;;32.25;13.68;;;6.40;96.40;;;;;;9667663;30;20032;-65
2022/12/04 07:10:50;;;;;;;35.83;13.48;;;5.80;96.20;;;;;;9674063;30;20306;-64
2022/12/04 07:15:51;;;;;;;35.20;14.02;;;5.80;96.20;;;;;;9674779;30;20045;-64
2022/12/04 07:20:51;;;;;;;37.53;12.68;;;5.80;96.20;;;;;;9675803;30;20050;-64
2022/12/04 07:25:52;;;;;;;39.67;15.15;;;5.80;96.20;;;;;;9676789;30;20030;-64
2022/12/04 07:30:53;;;;;;;36.90;12.98;;;6.00;96.30;;;;;;9675067;30;20412;-64
2022/12/04 07:35:58;;;;;;;30.98;13.15;;;5.80;96.20;;;;;;9676017;30;20087;-64
2022/12/04 07:40:59;;;;;;;35.10;14.25;;;5.80;96.20;;;;;;9677476;30;20447;-64
2022/12/04 07:46:06;;;;;;;35.33;14.23;;;5.80;96.20;;;;;;9681119;30;20049;-64
2022/12/04 07:51:09;;;;;;;34.15;14.65;;;7.20;96.50;;;;;;9683336;30;20141;-64
2022/12/04 07:56:11;;;;;;;33.03;13.52;;;5.80;96.20;;;;;;9679727;30;20556;-63
2022/12/04 08:01:21;;;;;;;34.80;13.48;;;5.80;96.20;;;;;;9681084;30;20049;-64
2022/12/04 08:06:23;;;;;;;32.70;14.38;;;5.70;96.20;;;;;;9682657;30;20026;-64
2022/12/04 08:11:26;;;;;;;35.45;13.57;;;6.10;96.30;;;;;;9681856;30;20054;-64
2022/12/04 08:16:28;;;;;;;34.83;13.02;;;6.30;96.30;;;;;;9682355;30;20038;-64
2022/12/04 08:21:30;;;;;;;36.80;13.20;;;5.90;96.20;;;;;;9682068;30;20736;-64
2022/12/04 08:26:32;;;;;;;36.03;12.80;;;5.70;96.20;;;;;;9682205;30;20192;-64
2022/12/04 08:31:34;;;;;;;28.73;11.85;;;6.50;96.40;;;;;;9677976;30;20415;-64
2022/12/04 08:36:35;;;;;;;32.33;12.60;;;5.70;96.20;;;;;;9678455;30;20060;-64
2022/12/04 08:41:36;;;;;;;33.63;13.40;;;5.70;96.20;;;;;;9681451;30;20146;-64
2022/12/04 08:46:37;;;;;;;30.88;12.95;;;5.70;96.20;;;;;;9681036;30;20034;-64
2022/12/04 08:51:38;;;;;;;29.58;11.77;;;6.30;96.40;;;;;;9678154;30;20449;-64
2022/12/04 08:56:39;;;;;;;28.33;12.25;;;5.70;96.20;;;;;;9679392;30;20038;-64
2022/12/04 09:01:40;;;;;;;31.35;12.65;;;5.70;96.20;;;;;;9676841;30;20042;-64
2022/12/04 09:06:40;;;;;;;29.05;12.02;;;6.20;96.30;;;;;;9676915;30;20529;-64
2022/12/04 09:11:44;;;;;;;30.13;11.95;;;5.70;96.20;;;;;;9677294;30;20504;-64
2022/12/04 09:16:45;;;;;;;30.20;11.30;;;5.70;96.20;;;;;;9650262;30;21346;-65
2022/12/04 09:21:46;;;;;;;27.45;12.18;;;5.80;96.30;;;;;;9656285;30;20383;-65
2022/12/04 09:26:47;;;;;;;30.13;11.80;;;6.40;96.40;;;;;;9648758;30;20113;-66
2022/12/04 09:31:47;;;;;;;28.25;11.73;;;5.80;96.30;;;;;;9616295;30;20065;-66
2022/12/04 09:36:49;;;;;;;26.75;11.90;;;5.80;96.30;;;;;;9602894;30;20431;-66
2022/12/04 09:42:07;;;;;;;31.42;11.77;;;5.80;96.30;;;;;;9599761;30;20058;-66
2022/12/04 09:47:18;;;;;;;30.97;11.27;;;5.80;96.30;;;;;;9602633;30;20144;-65
2022/12/04 09:52:50;;;;;;;30.98;12.55;;;5.80;96.30;;;;;;9602984;30;20045;-64
2022/12/04 09:57:54;;;;;;;29.98;11.57;;;5.80;96.30;;;;;;9601893;30;20137;-67
2022/12/04 10:03:05;;;;;;;29.42;12.07;;;5.80;96.30;;;;;;9595054;30;20433;-66
2022/12/04 10:08:22;;;;;;;28.73;12.07;;;5.80;96.30;;;;;;9603361;30;20595;-68
2022/12/04 10:13:29;;;;;;;28.00;11.32;;;5.80;96.30;;;;;;9598455;30;20436;-66
2022/12/04 10:18:32;;;;;;;32.97;12.85;;;5.80;96.30;;;;;;9603628;30;20475;-66
2022/12/04 10:24:09;;;;;;;30.58;12.15;;;5.80;96.30;;;;;;9597832;30;20515;-67
2022/12/04 10:29:23;;;;;;;44.60;12.88;;;5.80;96.30;;;;;;9568631;30;20042;-66
2022/12/04 10:34:26;;;;;;;28.58;11.38;;;6.20;97.10;;;;;;9596454;30;20539;-66
2022/12/04 10:39:39;;;;;;;24.58;9.77;;;6.30;96.60;;;;;;9598579;30;20963;-67
2022/12/04 10:44:39;;;;;;;36.90;11.57;;;6.30;96.60;;;;;;9600380;30;20062;-66
2022/12/04 10:49:40;;;;;;;31.33;12.02;;;6.60;96.70;;;;;;9599933;30;20045;-66
2022/12/04 10:54:50;;;;;;;29.25;11.68;;;6.30;96.70;;;;;;9597008;30;20435;-66
2022/12/04 10:59:55;;;;;;;25.38;10.85;;;6.10;96.70;;;;;;9596032;30;20432;-67
2022/12/04 11:04:59;;;;;;;32.83;12.00;;;6.20;96.70;;;;;;9599464;30;20157;-67
2022/12/04 11:10:24;;;;;;;29.60;11.88;;;6.20;96.80;;;;;;9602125;30;20088;-66
2022/12/04 11:15:25;;;;;;;28.85;12.00;;;6.20;96.80;;;;;;9595569;30;20557;-67
2022/12/04 11:20:26;;;;;;;31.38;12.75;;;6.20;96.80;;;;;;9602821;30;20377;-67
2022/12/04 11:25:34;;;;;;;31.23;13.35;;;6.10;96.80;;;;;;9608635;30;20136;-67
2022/12/04 11:30:37;;;;;;;29.38;12.93;;;6.70;97.00;;;;;;9603098;30;20952;-66
2022/12/04 11:35:38;;;;;;;29.52;11.60;;;6.30;96.90;;;;;;9605269;30;20849;-67
2022/12/04 11:40:46;;;;;;;31.55;12.95;;;6.20;97.20;;;;;;9606961;30;20077;-67
2022/12/04 11:46:02;;;;;;;35.38;13.98;;;6.90;97.20;;;;;;9601460;30;20034;-66
2022/12/04 11:51:20;;;;;;;30.02;12.13;;;6.20;97.00;;;;;;9601422;30;20228;-66
2022/12/04 11:56:44;;;;;;;27.48;11.63;;;6.20;97.10;;;;;;9599630;30;20333;-66
2022/12/04 12:01:59;;;;;;;29.90;11.93;;;6.20;97.10;;;;;;9589037;30;20069;-65
2022/12/04 12:07:17;;;;;;;30.58;12.00;;;6.20;97.10;;;;;;9587510;30;20045;-66
2022/12/04 12:12:21;;;;;;;27.07;10.70;;;6.20;97.20;;;;;;9588650;30;20050;-66
2022/12/04 12:17:45;;;;;;;29.38;11.38;;;6.30;97.20;;;;;;9594130;30;20544;-69
2022/12/04 12:23:01;;;;;;;26.45;10.82;;;6.30;97.40;;;;;;9603805;30;20661;-68
2022/12/04 12:28:26;;;;;;;30.40;12.07;;;6.30;97.30;;;;;;9599162;30;20308;-68
2022/12/04 12:34:39;;;;;;;;;;;;;;;;;;;;;
2022/12/04 12:40:31;;;;;;;24.45;10.13;;;6.30;97.60;;;;;;9590642;30;20054;-66
2022/12/04 12:46:13;;;;;;;29.48;11.60;;;7.20;97.80;;;;;;9594513;30;20397;-67
2022/12/04 12:51:35;;;;;;;26.60;10.73;;;6.30;97.60;;;;;;9581686;30;20069;-68
2022/12/04 12:56:40;;;;;;;25.63;9.85;;;6.40;97.70;;;;;;9588834;30;20364;-69
2022/12/04 13:02:10;;;;;;;27.48;9.55;;;6.50;97.90;;;;;;9594010;30;20045;-67
2022/12/04 13:07:16;;;;;;;25.00;9.43;;;6.50;97.90;;;;;;9593916;30;20061;-68
2022/12/04 13:12:19;;;;;;;20.52;8.80;;;6.50;97.80;;;;;;9596686;30;20053;-67
2022/12/04 13:17:24;;;;;;;22.30;9.18;;;6.60;97.90;;;;;;9676829;25;20748;-66
2022/12/04 13:22:43;;;;;;;23.27;9.45;;;6.50;97.90;;;;;;9635958;30;20756;-66
2022/12/04 13:28:05;;;;;;;25.55;9.35;;;6.50;98.10;;;;;;9634904;30;20600;-67
2022/12/04 13:33:21;;;;;;;25.52;9.10;;;6.60;98.50;;;;;;9630138;30;20404;-66
2022/12/04 13:39:09;;;;;;;18.08;8.43;;;6.60;98.20;;;;;;9629597;30;20041;-66
2022/12/04 13:44:18;;;;;;;19.58;8.38;;;6.60;98.30;;;;;;9625264;30;20186;-67
2022/12/04 13:49:19;;;;;;;25.77;8.75;;;7.20;98.30;;;;;;9627887;30;20030;-68
2022/12/04 13:54:29;;;;;;;22.55;8.20;;;6.60;98.20;;;;;;9667163;25;20061;-68
2022/12/04 13:59:36;;;;;;;19.38;8.65;;;7.10;98.30;;;;;;9627694;25;20191;-66
2022/12/04 14:04:44;;;;;;;20.58;8.80;;;6.60;98.40;;;;;;9605619;30;20539;-67
2022/12/04 14:09:52;;;;;;;18.47;8.40;;;6.80;98.40;;;;;;9603331;30;20600;-66
2022/12/04 14:15:00;;;;;;;21.23;8.07;;;7.40;98.50;;;;;;9597986;30;20116;-68
2022/12/04 14:20:26;;;;;;;21.53;7.93;;;6.50;98.30;;;;;;9594660;30;20316;-67
2022/12/04 14:25:38;;;;;;;33.67;9.20;;;6.50;98.20;;;;;;9592556;30;20452;-67
2022/12/04 14:30:41;;;;;;;25.25;7.63;;;6.80;99.30;;;;;;9605658;30;20038;-67
2022/12/04 14:35:49;;;;;;;22.05;8.25;;;6.90;98.60;;;;;;9595168;30;20564;-67
2022/12/04 14:40:55;;;;;;;21.85;8.07;;;7.30;99.30;;;;;;9590566;30;20337;-66
2022/12/04 14:46:24;;;;;;;32.47;8.68;;;7.70;98.70;;;;;;9601247;24;20783;-63
2022/12/04 14:51:34;;;;;;;27.38;8.68;;;7.40;99.90;;;;;;9600343;25;20026;-67
2022/12/04 15:08:16;;;;;;;17.48;7.13;;;7.20;99.10;;;;;;9546801;25;20091;-65
2022/12/04 15:13:41;;;;;;;24.25;7.90;;;7.30;98.90;;;;;;9546512;30;20053;-68
2022/12/04 15:20:03;;;;;;;21.45;7.97;;;7.30;99.10;;;;;;9568777;25;20314;-67
2022/12/04 15:25:18;;;;;;;17.33;6.97;;;7.00;99.10;;;;;;9552167;30;20169;-67
2022/12/04 15:30:21;;;;;;;19.98;8.65;;;6.90;99.00;;;;;;9564510;30;20529;-66
2022/12/04 15:36:04;;;;;;;20.63;8.27;;;6.90;99.10;;;;;;9549240;30;20031;-66
2022/12/04 15:41:05;;;;;;;19.55;8.13;;;7.00;99.40;;;;;;9544221;30;20528;-67
2022/12/04 15:46:23;;;;;;;20.27;8.00;;;7.00;99.40;;;;;;9555085;30;20386;-66
2022/12/04 15:51:24;;;;;;;19.13;8.35;;;6.90;99.10;;;;;;9558198;30;20398;-67
2022/12/04 15:56:26;;;;;;;21.83;8.57;;;7.10;99.10;;;;;;9679055;25;20054;-66
2022/12/04 16:07:17;;;;;;;21.70;7.47;;;6.80;99.00;;;;;;9811759;25;20153;31
2022/12/04 16:12:26;;;;;;;19.00;7.93;;;6.70;99.00;;;;;;9638188;30;20263;-67
2022/12/04 16:17:36;;;;;;;18.70;8.02;;;6.70;99.00;;;;;;9643152;30;20528;-64
2022/12/04 16:22:39;;;;;;;20.75;8.80;;;7.10;99.10;;;;;;9638912;30;20043;-67
2022/12/04 16:27:39;;;;;;;19.35;7.63;;;6.70;99.00;;;;;;9641555;30;20082;-66
2022/12/04 16:32:40;;;;;;;19.58;7.72;;;6.60;98.90;;;;;;9643673;30;20074;-66
2022/12/04 16:37:41;;;;;;;18.77;7.40;;;6.60;98.90;;;;;;9667597;25;20144;-65
2022/12/04 16:42:42;;;;;;;16.48;8.02;;;6.60;98.90;;;;;;9677408;30;20042;-66
2022/12/04 16:47:44;;;;;;;24.83;8.77;;;6.60;98.90;;;;;;9676006;30;20034;-67
2022/12/04 16:52:45;;;;;;;22.23;8.52;;;6.60;98.90;;;;;;9675778;30;20046;-66
2022/12/04 16:57:46;;;;;;;21.00;9.43;;;6.50;98.80;;;;;;9675586;30;20030;-67
2022/12/04 17:02:47;;;;;;;20.27;8.20;;;6.60;98.80;;;;;;9679798;30;20096;-66
2022/12/04 17:07:48;;;;;;;21.00;8.27;;;6.50;98.70;;;;;;9677681;30;20126;-66
2022/12/04 17:12:51;;;;;;;20.70;8.85;;;6.50;98.70;;;;;;9679426;30;20052;-64
2022/12/04 17:17:52;;;;;;;22.23;8.98;;;7.30;98.90;;;;;;9679220;30;20033;-66
2022/12/04 17:22:53;;;;;;;21.33;8.60;;;6.50;98.70;;;;;;9679983;30;20563;-66
2022/12/04 17:27:53;;;;;;;20.52;8.07;;;6.50;98.60;;;;;;9669876;30;20498;-66
2022/12/04 17:32:54;;;;;;;23.90;9.20;;;7.90;99.20;;;;;;9679353;30;20045;-66
2022/12/04 17:37:55;;;;;;;21.48;8.23;;;6.60;98.70;;;;;;9679258;30;20054;-65
2022/12/04 17:42:55;;;;;;;22.95;9.00;;;6.80;98.80;;;;;;9696235;24;20050;-65
2022/12/04 17:47:59;;;;;;;16.75;8.10;;;6.60;98.70;;;;;;9653811;30;20037;-66
2022/12/04 17:52:59;;;;;;;17.98;7.88;;;6.60;98.70;;;;;;9709426;24;20066;-65
2022/12/04 17:58:00;;;;;;;24.27;8.63;;;7.50;99.00;;;;;;9652344;30;20100;-64
2022/12/04 18:03:01;;;;;;;19.48;8.48;;;6.60;98.70;;;;;;9651183;30;20034;-65
2022/12/04 18:08:03;;;;;;;19.25;8.18;;;5.70;98.50;;;;;;9647389;30;20061;-66
2022/12/04 18:13:03;;;;;;;19.77;8.85;;;6.60;98.70;;;;;;9651799;30;20051;-66
2022/12/04 18:18:04;;;;;;;19.48;8.48;;;6.70;98.90;;;;;;9642692;30;20513;-67
2022/12/04 18:23:05;;;;;;;18.98;8.52;;;6.70;98.70;;;;;;9632725;30;20049;-66
2022/12/04 18:28:06;;;;;;;20.92;9.18;;;6.70;98.70;;;;;;9632082;30;20419;-67
2022/12/04 18:33:06;;;;;;;18.38;8.52;;;6.90;98.80;;;;;;9637357;30;20536;-65
2022/12/04 18:38:07;;;;;;;21.63;8.48;;;6.70;98.90;;;;;;9649704;30;20612;-64
2022/12/04 18:43:09;;;;;;;20.77;8.77;;;6.80;99.20;;;;;;9651017;30;20489;-65
2022/12/04 18:48:11;;;;;;;21.65;9.02;;;6.80;99.00;;;;;;9637509;30;20042;-65
2022/12/04 18:53:12;;;;;;;22.00;9.23;;;6.80;99.00;;;;;;9632982;30;20083;-65
2022/12/04 18:58:12;;;;;;;22.40;9.48;;;6.80;99.00;;;;;;9645198;30;20051;-65
2022/12/04 19:03:13;;;;;;;18.92;8.65;;;6.70;99.00;;;;;;9643746;30;20026;-65
2022/12/04 19:08:14;;;;;;;19.50;8.80;;;6.70;99.00;;;;;;9642997;30;20030;-65
2022/12/04 19:13:16;;;;;;;19.50;8.85;;;6.70;99.00;;;;;;9638863;30;20049;-65
2022/12/04 19:18:17;;;;;;;21.10;8.82;;;6.70;99.00;;;;;;9649532;30;20081;-65
2022/12/04 19:23:17;;;;;;;18.80;8.25;;;6.70;98.90;;;;;;9648660;30;20441;-64
2022/12/04 19:28:18;;;;;;;21.55;8.32;;;6.70;98.90;;;;;;9644394;30;20043;-64
2022/12/04 19:33:20;;;;;;;19.73;8.02;;;6.70;98.90;;;;;;9649395;30;20059;-64
2022/12/04 19:38:21;;;;;;;19.67;8.48;;;6.60;98.90;;;;;;9655068;30;20395;-64
2022/12/04 19:43:21;;;;;;;19.25;9.10;;;6.70;98.90;;;;;;9653091;30;20026;-64
2022/12/04 19:48:22;;;;;;;20.40;8.85;;;6.70;98.90;;;;;;9653554;30;20037;-64
2022/12/04 19:53:23;;;;;;;18.92;8.80;;;6.70;98.90;;;;;;9653322;30;20062;-65
2022/12/04 19:58:25;;;;;;;19.85;8.55;;;6.70;98.90;;;;;;9653663;30;20022;-65
2022/12/04 20:03:25;;;;;;;19.40;7.72;;;6.60;98.80;;;;;;9656555;30;20125;-64
2022/12/04 20:08:26;;;;;;;21.02;8.98;;;6.60;98.80;;;;;;9652856;30;20195;-64
2022/12/04 20:13:27;;;;;;;25.65;8.75;;;6.90;98.90;;;;;;9649582;30;20537;-64
2022/12/04 20:18:27;;;;;;;22.25;8.80;;;6.60;98.80;;;;;;9654363;30;20097;-65
2022/12/04 20:23:28;;;;;;;19.90;8.20;;;6.90;98.90;;;;;;9657814;30;20057;-64
2022/12/04 20:28:29;;;;;;;21.27;8.45;;;8.10;99.20;;;;;;9652705;30;20038;-64
2022/12/04 20:33:30;;;;;;;19.90;8.88;;;6.60;98.80;;;;;;9657584;30;20051;-64
2022/12/04 20:38:30;;;;;;;19.83;8.05;;;6.60;98.80;;;;;;9654254;30;20038;-64
2022/12/04 20:43:34;;;;;;;20.85;7.97;;;7.20;98.90;;;;;;9647205;30;20103;-64
2022/12/04 20:48:36;;;;;;;17.00;8.38;;;6.60;98.80;;;;;;9651369;30;20409;-63
2022/12/04 20:53:37;;;;;;;21.98;9.95;;;6.60;98.80;;;;;;9658732;30;20058;-63
2022/12/04 20:58:39;;;;;;;19.85;8.93;;;6.90;98.80;;;;;;9657360;30;20030;-63
2022/12/04 21:03:40;;;;;;;24.23;9.02;;;6.70;98.70;;;;;;9656791;30;20061;-63
2022/12/04 21:08:58;;;;;;;19.85;8.95;;;6.70;98.70;;;;;;9654657;30;20062;-64
2022/12/04 21:19:21;;;;;;;20.00;8.32;;;6.70;98.70;;;;;;9655319;30;20117;-63
2022/12/04 21:24:25;;;;;;;16.40;7.97;;;6.70;98.70;;;;;;9656163;30;20038;-63
2022/12/04 21:29:26;;;;;;;19.13;8.50;;;6.70;98.70;;;;;;9655007;30;20026;-64
2022/12/04 21:34:26;;;;;;;18.95;8.30;;;6.70;98.70;;;;;;9653785;30;20517;-65
2022/12/04 21:39:27;;;;;;;20.05;7.72;;;6.90;98.80;;;;;;9653615;30;20039;-64
2022/12/04 21:44:28;;;;;;;21.95;8.90;;;6.70;98.70;;;;;;9646828;30;20046;-64
2022/12/04 21:49:29;;;;;;;19.42;8.43;;;6.70;98.70;;;;;;9645873;30;20401;-64
2022/12/04 21:54:29;;;;;;;19.00;8.02;;;6.70;98.70;;;;;;9644561;30;20066;-64
2022/12/04 21:59:30;;;;;;;19.40;8.38;;;6.70;98.70;;;;;;9652090;30;20042;-64
2022/12/04 22:04:31;;;;;;;18.27;8.30;;;6.70;98.70;;;;;;9652884;30;20042;-64
2022/12/04 22:09:32;;;;;;;20.65;8.05;;;6.70;98.90;;;;;;9652803;30;20087;-64
2022/12/04 22:14:32;;;;;;;17.13;7.65;;;6.70;98.90;;;;;;9636555;30;20046;-64
2022/12/04 22:19:34;;;;;;;20.13;8.10;;;6.80;98.70;;;;;;9654090;30;20461;-65
2022/12/04 22:24:35;;;;;;;17.73;7.68;;;6.70;98.60;;;;;;9656328;30;20035;-64
2022/12/04 22:29:35;;;;;;;18.77;8.68;;;6.90;98.70;;;;;;9651000;30;20078;-64
2022/12/04 22:34:36;;;;;;;19.85;7.95;;;6.80;98.70;;;;;;9652341;30;20042;-64
2022/12/04 22:39:37;;;;;;;18.88;8.00;;;6.70;98.60;;;;;;9651302;30;20125;-64
2022/12/04 22:44:37;;;;;;;21.27;7.47;;;6.80;98.70;;;;;;9650753;30;20088;-64
2022/12/04 22:49:38;;;;;;;18.15;8.10;;;6.80;98.70;;;;;;9651172;30;20042;-64
2022/12/04 22:54:39;;;;;;;19.35;8.90;;;6.80;98.60;;;;;;9662313;30;20398;-64
2022/12/04 22:59:40;;;;;;;20.45;8.65;;;6.80;98.70;;;;;;9661657;30;20056;-65
2022/12/04 23:04:42;;;;;;;20.02;8.30;;;6.80;98.70;;;;;;9658726;30;20034;-64
2022/12/04 23:09:43;;;;;;;18.42;8.60;;;6.80;98.70;;;;;;9661748;30;20096;-64
2022/12/04 23:14:44;;;;;;;16.98;8.00;;;6.80;98.70;;;;;;9669391;30;20452;-64
2022/12/04 23:19:44;;;;;;;18.67;8.20;;;6.80;98.70;;;;;;9663845;30;20117;-64
2022/12/04 23:24:45;;;;;;;19.65;7.90;;;6.80;98.70;;;;;;9669218;30;20034;-64
2022/12/04 23:29:46;;;;;;;19.00;7.60;;;6.80;98.60;;;;;;9668028;30;20136;-64
2022/12/04 23:34:46;;;;;;;20.50;7.75;;;6.80;98.70;;;;;;9666950;30;20041;-64
2022/12/04 23:39:47;;;;;;;19.33;7.75;;;6.80;98.70;;;;;;9665329;30;20039;-64
2022/12/04 23:44:47;;;;;;;21.17;8.02;;;6.80;98.70;;;;;;9660853;30;20035;-64
2022/12/04 23:49:48;;;;;;;19.90;7.85;;;6.90;98.70;;;;;;9661204;30;20034;-64
2022/12/04 23:54:49;;;;;;;18.17;7.30;;;6.80;98.70;;;;;;9651968;30;20269;-64
2022/12/04 23:59:51;;;;;;;18.02;7.72;;;6.90;98.70;;;;;;9671903;30;20053;-64
